Time;durP1;ratioP1;P1;durP2;ratioP2;P2;SDS_P1;SDS_P2;PMS_P1;PMS_P2;Temp;Humidity;BMP_temperature;BMP_pressure;BME280_temperature;BME280_humidity;BME280_pressure;Samples;Min_cycle;Max_cycle;Signal;HPM_P1;HPM_P2
2023/04/21 00:00:09;;;;;;;12.23;8.63;;;7.10;99.90;;;;;;5038719;28;20529;-42
2023/04/21 00:02:38;;;;;;;19.30;8.63;;;7.10;99.90;;;;;;5008235;28;20208;-47
2023/04/21 00:05:09;;;;;;;14.40;8.23;;;7.10;99.90;;;;;;5036853;28;20273;-43
2023/04/21 00:07:37;;;;;;;12.90;8.97;;;7.10;99.90;;;;;;5029760;28;20324;-52
2023/04/21 00:10:06;;;;;;;12.43;8.67;;;7.10;99.90;;;;;;5018393;28;20216;-47
2023/04/21 00:12:32;;;;;;;16.17;8.87;;;7.10;99.90;;;;;;5024922;28;20208;-49
2023/04/21 00:15:00;;;;;;;14.40;8.73;;;7.10;99.90;;;;;;5040756;28;20639;-44
2023/04/21 00:17:27;;;;;;;15.27;9.47;;;7.10;99.90;;;;;;5014091;28;20199;-48
2023/04/21 00:19:57;;;;;;;15.90;8.90;;;7.10;99.90;;;;;;5032214;28;20200;-46
2023/04/21 00:22:26;;;;;;;15.80;9.37;;;7.10;99.90;;;;;;5032453;28;20185;-47
2023/04/21 00:24:53;;;;;;;13.03;8.93;;;7.10;99.90;;;;;;5024265;28;20222;-49
2023/04/21 00:27:20;;;;;;;13.93;9.17;;;7.00;99.90;;;;;;5038924;28;20199;-50
2023/04/21 00:29:47;;;;;;;17.33;8.77;;;7.00;99.90;;;;;;5036179;28;20356;-51
2023/04/21 00:32:15;;;;;;;15.20;9.00;;;7.00;99.90;;;;;;5010125;28;20223;-50
2023/04/21 00:34:42;;;;;;;13.93;9.03;;;7.00;99.90;;;;;;5036362;28;20215;-49
2023/04/21 00:37:09;;;;;;;17.27;9.57;;;7.10;99.90;;;;;;5028808;28;20204;-49
2023/04/21 00:39:36;;;;;;;12.57;8.77;;;7.00;99.90;;;;;;5020815;28;20204;-47
2023/04/21 00:42:04;;;;;;;19.87;9.57;;;7.00;99.90;;;;;;5029857;28;20279;-46
2023/04/21 00:44:31;;;;;;;14.50;9.33;;;7.00;99.90;;;;;;5036285;28;20732;-49
2023/04/21 00:46:58;;;;;;;12.87;9.27;;;7.00;99.90;;;;;;5010056;28;20586;-45
2023/04/21 00:49:26;;;;;;;16.63;8.47;;;7.00;99.90;;;;;;5028794;28;20686;-49
2023/04/21 00:51:54;;;;;;;14.43;9.17;;;7.00;99.90;;;;;;5023956;28;20188;-50
2023/04/21 00:54:24;;;;;;;15.27;9.00;;;7.00;99.90;;;;;;5031279;28;20319;-53
2023/04/21 00:56:53;;;;;;;14.10;8.77;;;7.00;99.90;;;;;;5047397;28;20204;-43
2023/04/21 00:59:20;;;;;;;16.93;9.13;;;7.00;99.90;;;;;;5033228;28;20191;-52
2023/04/21 01:01:47;;;;;;;14.03;8.83;;;6.90;99.90;;;;;;5016021;28;20203;-49
2023/04/21 01:04:14;;;;;;;15.10;8.90;;;6.90;99.90;;;;;;5028841;28;20247;-52
2023/04/21 01:06:42;;;;;;;17.57;9.03;;;6.90;99.90;;;;;;5031771;28;20934;-46
2023/04/21 01:09:11;;;;;;;12.43;8.70;;;6.90;99.90;;;;;;5029725;28;20655;-46
2023/04/21 01:11:38;;;;;;;12.73;7.87;;;6.90;99.90;;;;;;5025847;28;20254;-47
2023/04/21 01:14:08;;;;;;;14.20;8.87;;;6.90;99.90;;;;;;5026118;28;20234;-48
2023/04/21 01:16:38;;;;;;;14.10;8.27;;;6.90;99.90;;;;;;5004809;28;20200;-46
2023/04/21 01:19:05;;;;;;;12.50;7.90;;;6.80;99.90;;;;;;5015701;28;20211;-47
2023/04/21 01:21:40;;;;;;;16.13;8.80;;;6.80;99.90;;;;;;5024793;28;20610;-50
2023/04/21 01:24:07;;;;;;;11.27;8.80;;;6.80;99.90;;;;;;5040566;28;20218;-48
2023/04/21 01:26:34;;;;;;;14.37;8.67;;;6.80;99.90;;;;;;5019142;28;20215;-46
2023/04/21 01:29:01;;;;;;;17.37;8.10;;;6.90;99.90;;;;;;5035937;28;20210;-46
2023/04/21 01:31:28;;;;;;;14.60;8.47;;;6.80;99.90;;;;;;5009929;28;20242;-48
2023/04/21 01:33:55;;;;;;;11.00;7.90;;;6.80;99.90;;;;;;5029694;28;20579;-49
2023/04/21 01:36:22;;;;;;;13.70;8.00;;;6.80;99.90;;;;;;5027935;28;20195;-51
2023/04/21 01:38:53;;;;;;;16.37;8.53;;;6.80;99.90;;;;;;5028338;28;20239;-46
2023/04/21 01:41:42;;;;;;;15.77;8.63;;;6.80;99.90;;;;;;5030481;28;20953;-46
2023/04/21 01:44:09;;;;;;;12.43;7.47;;;6.80;99.90;;;;;;5023403;28;20219;-47
2023/04/21 01:46:37;;;;;;;12.37;7.63;;;6.80;99.90;;;;;;4994197;28;20639;-47
2023/04/21 01:49:04;;;;;;;15.10;8.77;;;6.80;99.90;;;;;;5031210;28;20200;-46
2023/04/21 01:51:33;;;;;;;13.93;7.73;;;6.80;99.90;;;;;;5028557;28;20249;-45
2023/04/21 01:54:01;;;;;;;13.67;7.77;;;6.80;99.90;;;;;;5036449;28;20695;-46
2023/04/21 01:56:28;;;;;;;18.13;8.77;;;6.80;99.90;;;;;;5037704;28;20278;-49
2023/04/21 01:58:56;;;;;;;18.87;8.67;;;6.80;99.90;;;;;;5013610;28;20940;-47
2023/04/21 02:01:23;;;;;;;11.73;8.43;;;6.80;99.90;;;;;;5027352;28;20196;-50
2023/04/21 02:03:50;;;;;;;15.93;8.90;;;6.80;99.90;;;;;;5004761;28;20224;-42
2023/04/21 02:06:17;;;;;;;17.93;9.03;;;6.80;99.90;;;;;;5035608;28;20206;-49
2023/04/21 02:08:44;;;;;;;12.20;8.20;;;6.80;99.90;;;;;;5027140;28;20249;-42
2023/04/21 02:11:12;;;;;;;11.20;7.90;;;6.80;99.90;;;;;;5033293;28;20231;-43
2023/04/21 02:13:40;;;;;;;12.33;8.53;;;6.80;99.90;;;;;;5017630;28;20666;-44
2023/04/21 02:16:07;;;;;;;11.73;7.47;;;6.80;99.90;;;;;;5023739;28;20206;-45
2023/04/21 02:18:38;;;;;;;13.17;8.17;;;6.80;99.90;;;;;;5006886;28;24411;-46
2023/04/21 02:21:06;;;;;;;12.33;7.97;;;6.80;99.90;;;;;;5035307;28;20187;-47
2023/04/21 02:23:33;;;;;;;13.83;7.87;;;6.80;99.90;;;;;;5026373;28;20352;-44
2023/04/21 02:26:00;;;;;;;13.30;7.53;;;6.80;99.90;;;;;;5039171;28;20195;-45
2023/04/21 02:28:28;;;;;;;13.30;7.37;;;6.80;99.90;;;;;;5018736;28;20314;-49
2023/04/21 02:30:55;;;;;;;11.23;7.93;;;6.80;99.90;;;;;;5031562;28;20278;-43
2023/04/21 02:33:22;;;;;;;13.20;7.70;;;6.80;99.90;;;;;;5035327;28;20215;-47
2023/04/21 02:35:49;;;;;;;14.20;7.67;;;6.70;99.90;;;;;;5010459;28;20214;-46
2023/04/21 02:38:17;;;;;;;14.43;7.63;;;6.70;99.90;;;;;;5035326;28;20224;-51
2023/04/21 02:40:44;;;;;;;11.93;7.53;;;6.70;99.90;;;;;;5028393;28;20200;-48
2023/04/21 02:43:13;;;;;;;11.00;8.77;;;6.60;99.90;;;;;;5034712;28;20207;-45
2023/04/21 02:45:41;;;;;;;11.33;8.13;;;6.60;99.90;;;;;;5023469;28;20945;-41
2023/04/21 02:48:08;;;;;;;13.73;8.10;;;6.60;99.90;;;;;;5027887;28;20191;-44
2023/04/21 02:50:35;;;;;;;12.43;8.40;;;6.60;99.90;;;;;;5014202;28;20226;-44
2023/04/21 02:53:02;;;;;;;13.97;7.63;;;6.60;99.90;;;;;;5031671;28;20306;-46
2023/04/21 02:55:29;;;;;;;10.50;7.63;;;6.60;99.90;;;;;;5029946;28;20764;-52
2023/04/21 02:57:56;;;;;;;10.23;7.37;;;6.60;99.90;;;;;;5035471;28;20564;-46
2023/04/21 03:00:24;;;;;;;11.90;6.93;;;6.60;99.90;;;;;;5028611;28;20315;-47
2023/04/21 03:02:53;;;;;;;10.67;7.30;;;6.60;99.90;;;;;;5034030;28;21006;-43
2023/04/21 03:05:20;;;;;;;11.80;7.23;;;6.60;99.90;;;;;;5024005;28;20269;-50
2023/04/21 03:07:47;;;;;;;13.00;8.10;;;6.60;99.90;;;;;;5013942;28;20195;-46
2023/04/21 03:10:14;;;;;;;10.07;6.97;;;6.60;99.90;;;;;;5030425;28;20192;-51
2023/04/21 03:12:41;;;;;;;16.00;7.90;;;6.60;99.90;;;;;;5032685;28;20273;-48
2023/04/21 03:15:08;;;;;;;11.57;7.10;;;6.60;99.90;;;;;;5024160;28;20223;-44
2023/04/21 03:17:35;;;;;;;11.83;7.73;;;6.60;99.90;;;;;;5033022;28;20845;-43
2023/04/21 03:20:06;;;;;;;11.37;6.67;;;6.60;99.90;;;;;;5040046;28;20207;-43
2023/04/21 03:22:34;;;;;;;13.53;7.53;;;6.60;99.90;;;;;;4996105;28;20218;-47
2023/04/21 03:25:00;;;;;;;14.80;7.20;;;6.60;99.90;;;;;;5031532;28;20230;-45
2023/04/21 03:27:49;;;;;;;12.70;7.57;;;6.60;99.90;;;;;;5032206;28;20337;-45
2023/04/21 03:30:16;;;;;;;12.00;7.30;;;6.60;99.90;;;;;;5036684;28;20257;-46
2023/04/21 03:32:43;;;;;;;8.83;6.77;;;6.50;99.90;;;;;;5046700;28;20208;-45
2023/04/21 03:35:11;;;;;;;8.63;7.07;;;6.50;99.90;;;;;;5030453;28;20231;-42
2023/04/21 03:37:38;;;;;;;13.60;7.47;;;6.50;99.90;;;;;;5003860;28;20334;-42
2023/04/21 03:40:06;;;;;;;11.17;7.83;;;6.50;99.90;;;;;;5033155;28;20582;-45
2023/04/21 03:42:33;;;;;;;13.80;7.27;;;6.50;99.90;;;;;;5026973;28;20192;-42
2023/04/21 03:45:02;;;;;;;11.97;7.00;;;6.50;99.90;;;;;;5039258;28;20223;-43
2023/04/21 03:47:32;;;;;;;9.53;6.93;;;6.50;99.90;;;;;;5026033;28;20456;-48
2023/04/21 03:49:59;;;;;;;14.83;7.57;;;6.50;99.90;;;;;;5034136;28;20195;-47
2023/04/21 03:52:27;;;;;;;13.23;7.33;;;6.50;99.90;;;;;;5015536;28;20589;-49
2023/04/21 03:54:54;;;;;;;11.30;7.87;;;6.50;99.90;;;;;;5032400;28;20250;-44
2023/04/21 03:57:21;;;;;;;11.67;7.53;;;6.50;99.90;;;;;;5036555;28;20817;-49
2023/04/21 03:59:48;;;;;;;11.80;7.00;;;6.40;99.90;;;;;;5039998;28;20354;-47
2023/04/21 04:02:15;;;;;;;10.47;6.70;;;6.50;99.90;;;;;;5023809;28;20257;-54
2023/04/21 04:04:41;;;;;;;15.87;7.27;;;6.40;99.90;;;;;;5031691;28;20430;-50
2023/04/21 04:07:09;;;;;;;11.73;7.10;;;6.50;99.90;;;;;;5032151;28;20199;-45
2023/04/21 04:09:37;;;;;;;13.03;7.77;;;6.50;99.90;;;;;;5010224;28;20917;-49
2023/04/21 04:12:04;;;;;;;11.03;7.07;;;6.50;99.90;;;;;;5034963;28;20669;-49
2023/04/21 04:14:31;;;;;;;10.73;7.73;;;6.50;99.90;;;;;;5035146;28;20216;-48
2023/04/21 04:16:58;;;;;;;11.27;7.80;;;6.50;99.90;;;;;;5011322;28;20200;-45
2023/04/21 04:19:30;;;;;;;12.67;7.90;;;6.50;99.90;;;;;;5018116;28;20808;-50
2023/04/21 04:21:58;;;;;;;8.43;6.90;;;6.50;99.90;;;;;;5028720;28;20207;-44
2023/04/21 04:24:26;;;;;;;13.03;7.63;;;6.60;99.90;;;;;;5007932;28;20215;-52
2023/04/21 04:26:54;;;;;;;10.33;6.97;;;6.60;99.90;;;;;;5029961;28;20277;-44
2023/04/21 04:29:22;;;;;;;8.93;7.00;;;6.60;99.90;;;;;;5034570;28;20192;-51
2023/04/21 04:31:49;;;;;;;10.87;7.30;;;6.50;99.90;;;;;;5027131;28;20520;-49
2023/04/21 04:34:16;;;;;;;15.30;7.53;;;6.60;99.90;;;;;;5014920;28;20596;-51
2023/04/21 04:36:43;;;;;;;12.23;7.37;;;6.60;99.90;;;;;;5028445;28;21738;-44
2023/04/21 04:39:11;;;;;;;15.17;7.90;;;6.60;99.90;;;;;;5029434;28;20204;-43
2023/04/21 04:41:38;;;;;;;9.67;7.40;;;6.60;99.90;;;;;;5007434;28;20215;-42
2023/04/21 04:44:06;;;;;;;16.87;7.80;;;6.60;99.90;;;;;;5032851;28;20216;-44
2023/04/21 04:46:34;;;;;;;11.23;7.30;;;6.60;99.90;;;;;;5026755;28;21070;-45
2023/04/21 04:49:01;;;;;;;8.80;7.17;;;6.60;99.90;;;;;;5020379;28;20200;-49
2023/04/21 04:51:28;;;;;;;12.80;6.97;;;6.60;99.90;;;;;;5027702;28;20215;-48
2023/04/21 04:53:55;;;;;;;8.50;7.17;;;6.60;99.90;;;;;;5030904;28;20834;-48
2023/04/21 04:56:22;;;;;;;10.70;7.27;;;6.60;99.90;;;;;;5011785;28;20215;-49
2023/04/21 04:58:49;;;;;;;13.67;7.23;;;6.70;99.90;;;;;;5025266;28;21000;-46
2023/04/21 05:01:18;;;;;;;11.07;7.20;;;6.80;99.90;;;;;;5022625;28;20295;-49
2023/04/21 05:03:46;;;;;;;11.53;8.00;;;6.80;99.90;;;;;;5029994;28;20883;-42
2023/04/21 05:06:13;;;;;;;13.47;7.17;;;6.80;99.90;;;;;;5029570;28;20199;-44
2023/04/21 05:08:40;;;;;;;11.43;7.60;;;6.80;99.90;;;;;;5028844;28;20195;-43
2023/04/21 05:11:08;;;;;;;10.97;6.63;;;6.80;99.90;;;;;;5013274;28;20282;-41
2023/04/21 05:13:35;;;;;;;10.10;6.73;;;6.80;99.90;;;;;;5008798;28;20207;-44
2023/04/21 05:16:02;;;;;;;10.33;7.23;;;6.90;99.90;;;;;;5023586;28;20266;-48
2023/04/21 05:18:30;;;;;;;13.77;7.90;;;6.90;99.90;;;;;;5020871;28;20203;-55
2023/04/21 05:20:57;;;;;;;15.07;7.50;;;7.00;99.90;;;;;;5024283;28;20301;-47
2023/04/21 05:23:24;;;;;;;12.43;7.43;;;7.00;99.90;;;;;;5025668;28;20205;-54
2023/04/21 05:25:51;;;;;;;12.03;7.67;;;7.10;99.90;;;;;;5005018;28;20223;-55
2023/04/21 05:28:18;;;;;;;9.77;7.03;;;7.10;99.90;;;;;;5024933;28;20706;-57
2023/04/21 05:30:45;;;;;;;10.13;6.90;;;7.20;99.90;;;;;;5021664;28;23148;-50
2023/04/21 05:33:12;;;;;;;9.07;6.53;;;7.30;99.90;;;;;;5027559;28;20238;-55
2023/04/21 05:35:40;;;;;;;11.40;7.53;;;7.30;99.90;;;;;;5021890;28;20230;-49
2023/04/21 05:38:07;;;;;;;12.27;7.60;;;7.40;99.90;;;;;;5033382;28;20547;-49
2023/04/21 05:40:34;;;;;;;10.77;7.40;;;7.40;99.90;;;;;;5014867;28;20279;-55
2023/04/21 05:43:01;;;;;;;10.50;6.90;;;7.50;99.90;;;;;;4991799;28;20207;-55
2023/04/21 05:45:28;;;;;;;10.83;6.67;;;7.60;99.90;;;;;;5030317;28;20223;-51
2023/04/21 05:47:55;;;;;;;11.37;7.07;;;7.70;99.90;;;;;;5022731;28;20310;-57
2023/04/21 05:50:25;;;;;;;11.33;6.50;;;7.70;99.90;;;;;;5024641;28;20196;-48
2023/04/21 05:52:55;;;;;;;10.30;7.47;;;7.80;99.90;;;;;;5024131;28;20658;-56
2023/04/21 05:55:22;;;;;;;8.83;6.77;;;7.90;99.90;;;;;;5017333;28;21080;-52
2023/04/21 05:57:48;;;;;;;13.60;7.00;;;8.00;99.90;;;;;;5012202;28;20567;-56
2023/04/21 06:00:16;;;;;;;14.50;6.73;;;8.10;99.90;;;;;;5029069;28;20232;-52
2023/04/21 06:02:43;;;;;;;9.43;6.40;;;8.20;99.90;;;;;;5028815;28;20204;-51
2023/04/21 06:05:09;;;;;;;9.03;6.63;;;8.30;99.90;;;;;;5019816;28;20218;-52
2023/04/21 06:07:37;;;;;;;9.80;6.57;;;8.30;99.90;;;;;;5021441;28;20207;-52
2023/04/21 06:10:08;;;;;;;11.07;5.90;;;8.40;99.90;;;;;;5021403;28;20228;-55
2023/04/21 06:12:56;;;;;;;8.37;6.53;;;8.50;99.90;;;;;;5002610;28;20261;-55
2023/04/21 06:15:23;;;;;;;9.17;6.43;;;8.60;99.90;;;;;;5024235;28;20215;-54
2023/04/21 06:17:53;;;;;;;10.03;6.67;;;8.70;99.90;;;;;;5029246;28;20207;-52
2023/04/21 06:20:21;;;;;;;8.07;5.87;;;8.80;99.90;;;;;;5024761;28;20234;-54
2023/04/21 06:22:48;;;;;;;9.87;6.00;;;8.90;99.90;;;;;;5020946;28;20203;-55
2023/04/21 06:25:16;;;;;;;7.93;6.80;;;9.00;99.90;;;;;;5019020;28;20282;-55
2023/04/21 06:27:44;;;;;;;13.20;6.97;;;9.10;99.90;;;;;;5026680;28;20208;-49
2023/04/21 06:30:11;;;;;;;7.93;6.50;;;9.20;99.90;;;;;;5004759;28;20211;-54
2023/04/21 06:32:39;;;;;;;9.37;6.50;;;9.30;99.90;;;;;;5022566;28;20227;-52
2023/04/21 06:35:06;;;;;;;6.87;5.53;;;9.30;99.90;;;;;;5012240;28;20310;-54
2023/04/21 06:37:33;;;;;;;7.57;6.23;;;9.40;99.90;;;;;;5014125;28;20199;-52
2023/04/21 06:40:02;;;;;;;11.67;6.67;;;9.50;99.90;;;;;;5026561;28;20204;-47
2023/04/21 06:42:30;;;;;;;10.83;6.10;;;9.60;99.90;;;;;;5018305;28;20215;-50
2023/04/21 06:44:57;;;;;;;9.27;6.30;;;9.60;99.90;;;;;;4995207;28;20523;-57
2023/04/21 06:47:24;;;;;;;9.17;6.10;;;9.70;99.90;;;;;;5029926;28;20204;-49
2023/04/21 06:49:52;;;;;;;7.90;6.07;;;9.90;99.90;;;;;;5015849;28;20262;-58
2023/04/21 06:52:18;;;;;;;7.97;5.87;;;9.90;99.90;;;;;;5029391;28;20228;-52
2023/04/21 06:54:45;;;;;;;9.43;5.80;;;10.00;99.90;;;;;;5027620;28;20227;-54
2023/04/21 06:57:14;;;;;;;10.00;6.13;;;10.10;99.90;;;;;;5029351;28;20258;-40
2023/04/21 06:59:42;;;;;;;8.63;5.80;;;10.20;99.90;;;;;;5010191;28;20215;-41
2023/04/21 07:02:09;;;;;;;8.07;6.70;;;10.30;99.90;;;;;;5021556;28;20199;-40
2023/04/21 07:04:54;;;;;;;10.43;5.83;;;10.30;99.90;;;;;;5016515;28;20602;-45
2023/04/21 07:07:22;;;;;;;11.40;6.33;;;10.40;99.90;;;;;;5027362;28;20291;-40
2023/04/21 07:09:48;;;;;;;10.03;6.20;;;10.50;99.90;;;;;;5027712;28;20554;-41
2023/04/21 07:12:15;;;;;;;9.77;5.67;;;10.50;99.90;;;;;;5024354;28;20222;-44
2023/04/21 07:14:43;;;;;;;7.40;6.17;;;10.60;99.90;;;;;;5009987;28;20239;-43
2023/04/21 07:17:10;;;;;;;10.37;6.40;;;10.70;99.90;;;;;;5028383;28;20774;-42
2023/04/21 07:19:37;;;;;;;11.27;6.00;;;10.70;99.90;;;;;;5027348;28;20287;-41
2023/04/21 07:22:03;;;;;;;10.93;6.23;;;10.80;99.90;;;;;;5024793;28;20196;-40
2023/04/21 07:24:30;;;;;;;7.23;6.03;;;10.90;99.90;;;;;;5021434;28;20800;-41
2023/04/21 07:26:57;;;;;;;7.77;6.40;;;10.90;99.90;;;;;;5026245;28;20326;-46
2023/04/21 07:29:24;;;;;;;7.63;5.70;;;11.00;99.90;;;;;;5033050;28;20223;-41
2023/04/21 07:31:53;;;;;;;7.40;6.30;;;11.10;99.90;;;;;;5005323;28;20299;-42
2023/04/21 07:34:20;;;;;;;9.87;5.67;;;11.10;99.90;;;;;;5029808;28;20218;-43
2023/04/21 07:36:47;;;;;;;7.27;5.60;;;11.20;99.90;;;;;;5028428;28;20598;-44
2023/04/21 07:39:14;;;;;;;14.07;6.63;;;11.30;99.90;;;;;;5026579;28;21464;-43
2023/04/21 07:41:40;;;;;;;9.13;5.97;;;11.40;99.90;;;;;;5032506;28;20199;-47
2023/04/21 07:44:07;;;;;;;9.63;5.90;;;11.50;99.90;;;;;;5019985;28;20223;-44
2023/04/21 07:46:34;;;;;;;7.10;5.67;;;11.50;99.90;;;;;;5002627;28;20270;-45
2023/04/21 07:49:02;;;;;;;10.20;5.80;;;11.60;99.90;;;;;;5026625;28;20195;-43
2023/04/21 07:51:29;;;;;;;7.70;5.80;;;11.70;99.90;;;;;;5027247;28;20204;-41
2023/04/21 07:53:56;;;;;;;9.63;6.00;;;11.80;99.90;;;;;;5025599;28;20241;-45
2023/04/21 07:56:22;;;;;;;10.00;6.40;;;11.90;99.90;;;;;;5021662;28;20887;-46
2023/04/21 07:58:49;;;;;;;9.07;5.37;;;12.00;99.90;;;;;;5016116;28;20214;-44
2023/04/21 08:01:16;;;;;;;8.07;5.50;;;12.10;99.90;;;;;;5002703;28;20443;-44
2023/04/21 08:03:44;;;;;;;11.03;5.87;;;12.20;99.90;;;;;;5038317;28;20274;-45
2023/04/21 08:06:12;;;;;;;8.00;5.70;;;12.40;99.90;;;;;;5030918;28;20947;-46
2023/04/21 08:08:38;;;;;;;7.30;5.60;;;12.50;99.90;;;;;;5029272;28;20211;-42
2023/04/21 08:11:05;;;;;;;8.03;5.83;;;12.50;99.90;;;;;;5022465;28;20207;-44
2023/04/21 08:13:32;;;;;;;11.57;6.37;;;12.60;99.90;;;;;;5022920;28;20246;-42
2023/04/21 08:15:58;;;;;;;11.23;6.00;;;12.70;99.90;;;;;;5026925;28;20202;-42
2023/04/21 08:18:25;;;;;;;9.27;6.20;;;12.80;99.90;;;;;;5012416;28;20216;-42
2023/04/21 08:20:52;;;;;;;7.30;5.80;;;13.00;99.90;;;;;;5028874;28;20549;-46
2023/04/21 08:23:20;;;;;;;6.53;5.30;;;13.00;99.90;;;;;;5022780;28;20211;-42
2023/04/21 08:25:47;;;;;;;6.73;5.43;;;13.20;99.90;;;;;;5027213;28;20765;-46
2023/04/21 08:28:14;;;;;;;9.13;6.37;;;13.20;99.90;;;;;;5026991;28;20199;-41
2023/04/21 08:30:41;;;;;;;7.70;5.87;;;13.30;99.90;;;;;;5026947;28;20222;-41
2023/04/21 08:33:12;;;;;;;6.77;6.07;;;13.50;99.90;;;;;;5005368;28;20375;-43
2023/04/21 08:35:39;;;;;;;7.17;6.47;;;13.60;99.90;;;;;;5037372;28;20306;-41
2023/04/21 08:38:07;;;;;;;8.27;5.93;;;13.60;99.90;;;;;;5019011;28;20203;-44
2023/04/21 08:40:37;;;;;;;6.87;6.07;;;13.70;99.90;;;;;;5026708;28;20195;-44
2023/04/21 08:43:05;;;;;;;11.60;6.70;;;13.90;99.90;;;;;;5017722;28;20195;-42
2023/04/21 08:45:33;;;;;;;6.47;5.80;;;14.00;99.90;;;;;;5033074;28;20244;-45
2023/04/21 08:48:01;;;;;;;6.90;5.67;;;14.10;99.90;;;;;;5027693;28;21644;-45
2023/04/21 08:50:29;;;;;;;6.10;5.50;;;14.10;99.90;;;;;;5006309;28;20212;-45
2023/04/21 08:52:57;;;;;;;8.40;6.43;;;14.30;99.90;;;;;;5030699;28;20219;-43
2023/04/21 08:55:26;;;;;;;10.10;6.77;;;14.30;99.90;;;;;;5020383;28;20220;-44
2023/04/21 08:57:54;;;;;;;6.53;5.50;;;14.40;99.90;;;;;;5021303;28;20195;-42
2023/04/21 09:00:22;;;;;;;9.90;6.13;;;14.50;99.90;;;;;;5030067;28;20278;-45
2023/04/21 09:02:59;;;;;;;6.93;6.23;;;14.60;99.90;;;;;;5035453;28;20249;-45
2023/04/21 09:05:28;;;;;;;7.43;6.20;;;14.60;99.90;;;;;;5009941;28;20254;-43
2023/04/21 09:08:08;;;;;;;8.17;6.03;;;14.60;99.90;;;;;;5027603;28;20196;-43
2023/04/21 09:10:42;;;;;;;8.20;6.37;;;14.80;99.90;;;;;;5024691;28;20199;-42
2023/04/21 09:13:10;;;;;;;7.77;6.20;;;14.90;99.90;;;;;;5026533;28;20237;-44
2023/04/21 09:15:41;;;;;;;6.97;5.53;;;15.00;99.90;;;;;;5027868;28;20695;-42
2023/04/21 09:18:13;;;;;;;8.40;6.37;;;15.00;99.90;;;;;;5024435;28;20219;-43
2023/04/21 09:20:41;;;;;;;8.97;6.10;;;15.10;99.90;;;;;;5005210;28;20614;-45
2023/04/21 09:23:08;;;;;;;7.90;5.87;;;15.10;99.90;;;;;;5027309;28;20196;-42
2023/04/21 09:25:38;;;;;;;7.07;6.00;;;15.20;99.90;;;;;;5025268;28;20212;-46
2023/04/21 09:28:07;;;;;;;7.20;6.40;;;;;;;;;;5007662;28;20314;-42
2023/04/21 09:30:36;;;;;;;7.13;6.33;;;15.30;99.90;;;;;;5027763;28;20210;-45
2023/04/21 09:33:04;;;;;;;8.37;5.93;;;15.40;99.90;;;;;;5023373;28;20268;-41
2023/04/21 09:35:33;;;;;;;9.03;6.50;;;15.40;99.90;;;;;;5026304;28;20781;-44
2023/04/21 09:38:01;;;;;;;8.03;5.90;;;15.50;99.90;;;;;;5001786;28;20285;-44
2023/04/21 09:40:29;;;;;;;9.97;6.17;;;;;;;;;;5021039;28;20203;-45
2023/04/21 09:42:56;;;;;;;7.07;5.90;;;15.70;99.90;;;;;;5027456;28;20231;-42
2023/04/21 09:45:27;;;;;;;7.30;6.50;;;15.60;99.90;;;;;;5017514;28;20243;-47
2023/04/21 09:47:57;;;;;;;6.73;5.83;;;15.70;99.90;;;;;;5037117;28;20220;-41
2023/04/21 09:50:25;;;;;;;7.53;5.83;;;15.80;99.90;;;;;;5017190;28;20203;-48
2023/04/21 09:52:53;;;;;;;6.97;5.87;;;15.90;99.90;;;;;;5007035;28;20243;-46
2023/04/21 09:55:25;;;;;;;7.53;5.90;;;15.80;99.90;;;;;;5033708;28;20223;-43
2023/04/21 09:57:57;;;;;;;7.33;6.10;;;15.80;99.90;;;;;;5023132;28;20207;-41
2023/04/21 10:00:27;;;;;;;8.53;6.70;;;16.00;99.90;;;;;;5021129;28;20722;-43
2023/04/21 10:02:57;;;;;;;9.00;6.00;;;16.10;99.90;;;;;;5028307;28;20223;-44
2023/04/21 10:05:24;;;;;;;8.23;6.60;;;16.20;99.90;;;;;;5018672;28;20226;-44
2023/04/21 10:07:50;;;;;;;7.60;5.60;;;16.30;99.90;;;;;;5006290;28;20250;-43
2023/04/21 10:10:23;;;;;;;7.10;6.13;;;16.40;99.90;;;;;;5030270;28;20664;-45
2023/04/21 10:12:50;;;;;;;10.20;6.53;;;16.50;99.90;;;;;;5020465;28;20218;-42
2023/04/21 10:15:32;;;;;;;10.90;6.50;;;16.50;99.90;;;;;;5030766;28;20310;-43
2023/04/21 10:18:18;;;;;;;6.43;5.73;;;16.60;99.90;;;;;;5017234;28;20731;-42
2023/04/21 10:20:55;;;;;;;9.90;6.20;;;16.70;99.90;;;;;;5028006;28;20196;-41
2023/04/21 10:23:29;;;;;;;6.57;5.87;;;16.70;99.90;;;;;;5009614;28;20285;-45
2023/04/21 10:26:02;;;;;;;10.10;6.07;;;16.90;99.90;;;;;;5032556;28;20200;-41
2023/04/21 10:28:45;;;;;;;8.10;5.90;;;17.00;99.90;;;;;;5022417;28;20634;-45
2023/04/21 10:31:23;;;;;;;6.80;5.60;;;17.10;99.40;;;;;;4995034;28;20220;-42
2023/04/21 10:34:28;;;;;;;9.80;6.03;;;17.10;99.90;;;;;;5022802;28;20294;-46
2023/04/21 10:37:15;;;;;;;12.20;6.43;;;17.20;99.90;;;;;;5027698;28;20268;-43
2023/04/21 10:39:53;;;;;;;7.90;5.60;;;17.30;99.40;;;;;;5017927;28;20211;-43
2023/04/21 10:42:35;;;;;;;8.43;6.20;;;17.40;99.90;;;;;;5033859;28;20911;-41
2023/04/21 10:45:10;;;;;;;9.50;5.93;;;17.50;99.90;;;;;;5016331;28;20253;-43
2023/04/21 10:47:43;;;;;;;7.40;5.83;;;17.50;99.20;;;;;;5018559;28;20236;-41
2023/04/21 10:50:14;;;;;;;10.93;5.70;;;17.40;99.90;;;;;;5030998;28;20202;-44
2023/04/21 10:52:45;;;;;;;6.37;5.47;;;17.40;99.90;;;;;;5033276;28;20233;-41
2023/04/21 10:55:14;;;;;;;8.80;5.77;;;17.60;99.90;;;;;;5018467;28;20215;-42
2023/04/21 10:57:44;;;;;;;9.13;5.87;;;17.60;99.90;;;;;;5034646;28;20282;-45
2023/04/21 11:00:15;;;;;;;8.03;6.20;;;17.70;99.60;;;;;;5013818;28;20923;-43
2023/04/21 11:02:42;;;;;;;8.80;6.70;;;17.80;99.90;;;;;;5023741;28;20203;-42
2023/04/21 11:05:10;;;;;;;8.23;6.10;;;17.90;99.70;;;;;;5029998;28;20309;-42
2023/04/21 11:07:38;;;;;;;8.77;6.17;;;17.90;99.20;;;;;;5033893;28;20210;-46
2023/04/21 11:10:06;;;;;;;8.53;5.73;;;17.80;98.70;;;;;;5013078;28;20216;-41
2023/04/21 11:12:34;;;;;;;8.87;6.03;;;17.80;98.70;;;;;;5030291;28;20610;-45
2023/04/21 11:15:06;;;;;;;8.47;6.77;;;17.90;98.70;;;;;;5008974;28;20212;-44
2023/04/21 11:17:37;;;;;;;7.17;6.23;;;;;;;;;;5023040;28;20207;-42
2023/04/21 11:20:07;;;;;;;8.43;6.13;;;18.20;98.90;;;;;;5024884;28;20257;-43
2023/04/21 11:22:36;;;;;;;6.60;6.03;;;18.30;99.10;;;;;;5034097;28;20257;-47
2023/04/21 11:25:04;;;;;;;6.63;6.00;;;18.30;99.10;;;;;;5009464;28;20227;-43
2023/04/21 11:27:31;;;;;;;9.60;6.50;;;18.30;98.40;;;;;;5030543;28;20898;-40
2023/04/21 11:29:59;;;;;;;8.17;6.07;;;18.30;98.10;;;;;;5021506;28;20679;-42
2023/04/21 11:32:26;;;;;;;7.13;5.30;;;18.30;98.40;;;;;;5029865;28;20203;-44
2023/04/21 11:34:54;;;;;;;8.03;6.23;;;18.30;98.30;;;;;;5028342;28;20223;-41
2023/04/21 11:37:24;;;;;;;8.03;5.50;;;18.30;98.30;;;;;;5032108;28;21221;-39
2023/04/21 11:39:57;;;;;;;9.43;5.83;;;18.40;97.90;;;;;;5023193;28;20203;-45
2023/04/21 11:42:26;;;;;;;7.00;5.80;;;18.40;97.70;;;;;;5005483;28;20867;-46
2023/04/21 11:44:55;;;;;;;9.80;6.10;;;18.50;97.40;;;;;;5017939;28;20293;-41
2023/04/21 11:47:24;;;;;;;6.80;6.10;;;18.50;97.30;;;;;;5022757;28;20315;-43
2023/04/21 11:49:53;;;;;;;9.47;5.87;;;18.60;97.30;;;;;;5028619;28;20200;-41
2023/04/21 11:52:25;;;;;;;6.57;5.93;;;18.60;97.20;;;;;;5019628;28;20207;-43
2023/04/21 11:54:58;;;;;;;7.03;5.80;;;18.70;96.90;;;;;;5024468;28;20224;-40
2023/04/21 11:57:27;;;;;;;9.50;5.90;;;18.80;96.40;;;;;;5008343;28;20608;-40
2023/04/21 11:59:54;;;;;;;7.53;5.90;;;18.90;96.90;;;;;;5027438;28;20208;-42
2023/04/21 12:02:25;;;;;;;7.13;5.53;;;18.90;97.20;;;;;;5016417;28;20258;-40
2023/04/21 12:05:02;;;;;;;5.90;5.40;;;18.90;97.30;;;;;;5023729;28;20263;-41
2023/04/21 12:07:30;;;;;;;9.33;5.20;;;19.00;96.90;;;;;;5011335;28;20318;-43
2023/04/21 12:09:58;;;;;;;7.10;5.57;;;19.00;96.90;;;;;;5024890;28;20313;-41
2023/04/21 12:12:27;;;;;;;7.67;5.47;;;19.00;97.30;;;;;;5018655;28;20207;-38
2023/04/21 12:14:54;;;;;;;7.03;5.70;;;19.00;96.70;;;;;;5024405;28;21360;-41
2023/04/21 12:17:21;;;;;;;7.67;6.10;;;19.00;96.80;;;;;;5025934;28;20212;-42
2023/04/21 12:19:48;;;;;;;6.63;5.27;;;19.10;96.90;;;;;;5023426;28;20968;-44
2023/04/21 12:22:17;;;;;;;7.37;6.03;;;19.00;97.30;;;;;;5027751;28;20206;-43
2023/04/21 12:24:46;;;;;;;6.37;5.73;;;18.90;97.50;;;;;;5029162;28;20292;-42
2023/04/21 12:27:12;;;;;;;7.83;5.10;;;18.80;97.80;;;;;;5009782;28;20664;-42
2023/04/21 12:29:41;;;;;;;9.23;6.17;;;18.80;98.00;;;;;;5025196;28;20288;-44
2023/04/21 12:32:08;;;;;;;10.07;5.90;;;18.80;98.50;;;;;;5025849;28;20212;-40
2023/04/21 12:34:36;;;;;;;7.47;5.47;;;19.10;98.20;;;;;;5018990;28;20228;-46
2023/04/21 12:37:03;;;;;;;7.27;6.37;;;19.20;97.50;;;;;;5020882;28;20290;-41
2023/04/21 12:39:30;;;;;;;7.60;5.87;;;19.20;96.90;;;;;;5030801;28;20212;-43
2023/04/21 12:41:57;;;;;;;8.63;5.17;;;19.20;96.80;;;;;;5037231;28;20257;-40
2023/04/21 12:44:24;;;;;;;8.00;6.37;;;;;;;;;;5009622;28;20599;-40
2023/04/21 12:46:53;;;;;;;7.13;5.23;;;19.80;99.90;;;;;;5020103;28;20207;-41
2023/04/21 12:49:22;;;;;;;9.33;5.83;;;19.30;99.90;;;;;;5031072;28;20736;-44
2023/04/21 12:51:49;;;;;;;7.13;5.90;;;19.20;98.60;;;;;;5014945;28;20214;-41
2023/04/21 12:54:16;;;;;;;8.33;5.40;;;19.20;97.00;;;;;;5022934;28;20303;-41